sensor_id;sensor_type;location;lat;lon;timestamp;P1;durP1;ratioP1;P2;durP2;ratioP2
39880;SDS011;25554;44.954;10.068;2023-05-28T00:01:43;21.08;;;15.45;;
39880;SDS011;25554;44.954;10.068;2023-05-28T00:04:09;18.75;;;15.25;;
39880;SDS011;25554;44.954;10.068;2023-05-28T00:09:05;18.20;;;15.85;;
39880;SDS011;25554;44.954;10.068;2023-05-28T00:11:36;20.73;;;16.17;;
39880;SDS011;25554;44.954;10.068;2023-05-28T00:14:04;19.95;;;15.60;;
39880;SDS011;25554;44.954;10.068;2023-05-28T00:16:32;21.50;;;15.95;;
39880;SDS011;25554;44.954;10.068;2023-05-28T00:19:04;21.50;;;16.83;;
39880;SDS011;25554;44.954;10.068;2023-05-28T00:21:31;25.33;;;16.45;;
39880;SDS011;25554;44.954;10.068;2023-05-28T00:24:01;25.13;;;16.20;;
39880;SDS011;25554;44.954;10.068;2023-05-28T00:26:28;22.77;;;17.77;;
39880;SDS011;25554;44.954;10.068;2023-05-28T00:28:57;26.98;;;16.63;;
39880;SDS011;25554;44.954;10.068;2023-05-28T00:33:49;25.42;;;16.50;;
39880;SDS011;25554;44.954;10.068;2023-05-28T00:36:16;24.08;;;17.08;;
39880;SDS011;25554;44.954;10.068;2023-05-28T00:41:08;20.90;;;16.92;;
39880;SDS011;25554;44.954;10.068;2023-05-28T00:43:35;25.85;;;16.63;;
39880;SDS011;25554;44.954;10.068;2023-05-28T00:48:29;23.25;;;17.38;;
39880;SDS011;25554;44.954;10.068;2023-05-28T00:50:57;21.58;;;16.15;;
39880;SDS011;25554;44.954;10.068;2023-05-28T00:53:24;21.60;;;15.85;;
39880;SDS011;25554;44.954;10.068;2023-05-28T00:55:51;21.33;;;16.88;;
39880;SDS011;25554;44.954;10.068;2023-05-28T00:58:18;24.55;;;15.68;;
39880;SDS011;25554;44.954;10.068;2023-05-28T01:00:45;21.13;;;17.05;;
39880;SDS011;25554;44.954;10.068;2023-05-28T01:03:12;23.50;;;17.55;;
39880;SDS011;25554;44.954;10.068;2023-05-28T01:05:39;21.92;;;16.75;;
39880;SDS011;25554;44.954;10.068;2023-05-28T01:08:06;23.35;;;17.60;;
39880;SDS011;25554;44.954;10.068;2023-05-28T01:10:33;27.30;;;18.40;;
39880;SDS011;25554;44.954;10.068;2023-05-28T01:13:01;26.27;;;17.88;;
39880;SDS011;25554;44.954;10.068;2023-05-28T01:15:31;32.38;;;17.60;;
39880;SDS011;25554;44.954;10.068;2023-05-28T01:17:58;26.70;;;17.60;;
39880;SDS011;25554;44.954;10.068;2023-05-28T01:20:27;19.00;;;16.58;;
39880;SDS011;25554;44.954;10.068;2023-05-28T01:22:55;23.15;;;17.58;;
39880;SDS011;25554;44.954;10.068;2023-05-28T01:25:30;27.35;;;17.75;;
39880;SDS011;25554;44.954;10.068;2023-05-28T01:27:59;23.65;;;16.80;;
39880;SDS011;25554;44.954;10.068;2023-05-28T01:30:28;24.55;;;18.10;;
39880;SDS011;25554;44.954;10.068;2023-05-28T01:32:58;23.38;;;18.20;;
39880;SDS011;25554;44.954;10.068;2023-05-28T01:35:27;23.50;;;18.00;;
39880;SDS011;25554;44.954;10.068;2023-05-28T01:37:53;25.30;;;18.85;;
39880;SDS011;25554;44.954;10.068;2023-05-28T01:40:24;20.50;;;17.27;;
39880;SDS011;25554;44.954;10.068;2023-05-28T01:42:52;27.27;;;19.25;;
39880;SDS011;25554;44.954;10.068;2023-05-28T01:45:23;26.67;;;18.73;;
39880;SDS011;25554;44.954;10.068;2023-05-28T01:47:50;23.15;;;17.75;;
39880;SDS011;25554;44.954;10.068;2023-05-28T01:50:17;27.20;;;20.55;;
39880;SDS011;25554;44.954;10.068;2023-05-28T01:52:43;27.58;;;19.83;;
39880;SDS011;25554;44.954;10.068;2023-05-28T01:55:10;24.13;;;18.70;;
39880;SDS011;25554;44.954;10.068;2023-05-28T01:57:38;23.27;;;17.48;;
39880;SDS011;25554;44.954;10.068;2023-05-28T02:00:06;24.60;;;19.05;;
39880;SDS011;25554;44.954;10.068;2023-05-28T02:02:41;30.02;;;18.40;;
39880;SDS011;25554;44.954;10.068;2023-05-28T02:05:08;26.73;;;18.83;;
39880;SDS011;25554;44.954;10.068;2023-05-28T02:07:35;25.38;;;17.58;;
39880;SDS011;25554;44.954;10.068;2023-05-28T02:10:02;23.67;;;18.33;;
39880;SDS011;25554;44.954;10.068;2023-05-28T02:12:29;24.15;;;17.83;;
39880;SDS011;25554;44.954;10.068;2023-05-28T02:14:55;24.75;;;17.80;;
39880;SDS011;25554;44.954;10.068;2023-05-28T02:19:48;27.95;;;18.80;;
39880;SDS011;25554;44.954;10.068;2023-05-28T02:24:41;24.73;;;16.85;;
39880;SDS011;25554;44.954;10.068;2023-05-28T02:27:08;25.80;;;18.08;;
39880;SDS011;25554;44.954;10.068;2023-05-28T02:29:35;25.05;;;17.65;;
39880;SDS011;25554;44.954;10.068;2023-05-28T02:32:02;25.02;;;18.65;;
39880;SDS011;25554;44.954;10.068;2023-05-28T02:34:28;32.30;;;20.48;;
39880;SDS011;25554;44.954;10.068;2023-05-28T02:36:55;25.27;;;18.00;;
39880;SDS011;25554;44.954;10.068;2023-05-28T02:39:22;25.92;;;18.35;;
39880;SDS011;25554;44.954;10.068;2023-05-28T02:41:49;26.17;;;19.08;;
39880;SDS011;25554;44.954;10.068;2023-05-28T02:44:16;26.75;;;18.98;;
39880;SDS011;25554;44.954;10.068;2023-05-28T02:49:08;27.38;;;17.70;;
39880;SDS011;25554;44.954;10.068;2023-05-28T02:51:35;27.80;;;19.23;;
39880;SDS011;25554;44.954;10.068;2023-05-28T02:54:22;27.97;;;19.87;;
39880;SDS011;25554;44.954;10.068;2023-05-28T02:56:49;31.30;;;21.00;;
39880;SDS011;25554;44.954;10.068;2023-05-28T02:59:16;31.30;;;21.17;;
39880;SDS011;25554;44.954;10.068;2023-05-28T03:01:42;30.08;;;21.95;;
39880;SDS011;25554;44.954;10.068;2023-05-28T03:04:09;33.10;;;22.20;;
39880;SDS011;25554;44.954;10.068;2023-05-28T03:06:36;36.17;;;23.67;;
39880;SDS011;25554;44.954;10.068;2023-05-28T03:11:29;34.75;;;23.27;;
39880;SDS011;25554;44.954;10.068;2023-05-28T03:16:21;35.78;;;23.15;;
39880;SDS011;25554;44.954;10.068;2023-05-28T03:18:50;27.90;;;20.58;;
39880;SDS011;25554;44.954;10.068;2023-05-28T03:21:18;28.33;;;21.77;;
39880;SDS011;25554;44.954;10.068;2023-05-28T03:23:44;31.00;;;20.23;;
39880;SDS011;25554;44.954;10.068;2023-05-28T03:26:22;29.02;;;20.45;;
39880;SDS011;25554;44.954;10.068;2023-05-28T03:28:50;26.70;;;19.65;;
39880;SDS011;25554;44.954;10.068;2023-05-28T03:31:30;32.85;;;19.65;;
39880;SDS011;25554;44.954;10.068;2023-05-28T03:34:10;31.52;;;20.02;;
39880;SDS011;25554;44.954;10.068;2023-05-28T03:36:36;29.25;;;21.75;;
39880;SDS011;25554;44.954;10.068;2023-05-28T03:39:07;33.10;;;21.45;;
39880;SDS011;25554;44.954;10.068;2023-05-28T03:41:34;36.80;;;22.77;;
39880;SDS011;25554;44.954;10.068;2023-05-28T03:44:02;31.77;;;21.55;;
39880;SDS011;25554;44.954;10.068;2023-05-28T03:46:28;27.25;;;20.55;;
39880;SDS011;25554;44.954;10.068;2023-05-28T03:48:55;33.75;;;22.58;;
39880;SDS011;25554;44.954;10.068;2023-05-28T03:51:24;31.92;;;22.75;;
39880;SDS011;25554;44.954;10.068;2023-05-28T03:53:52;33.13;;;22.50;;
39880;SDS011;25554;44.954;10.068;2023-05-28T03:56:19;34.72;;;21.85;;
39880;SDS011;25554;44.954;10.068;2023-05-28T03:58:47;29.75;;;21.67;;
39880;SDS011;25554;44.954;10.068;2023-05-28T04:01:14;29.38;;;21.85;;
39880;SDS011;25554;44.954;10.068;2023-05-28T04:03:41;29.38;;;20.25;;
39880;SDS011;25554;44.954;10.068;2023-05-28T04:06:08;29.52;;;20.73;;
39880;SDS011;25554;44.954;10.068;2023-05-28T04:08:35;30.85;;;22.58;;
39880;SDS011;25554;44.954;10.068;2023-05-28T04:11:02;30.95;;;22.23;;
39880;SDS011;25554;44.954;10.068;2023-05-28T04:13:29;32.58;;;22.60;;
39880;SDS011;25554;44.954;10.068;2023-05-28T04:15:56;32.22;;;21.33;;
39880;SDS011;25554;44.954;10.068;2023-05-28T04:18:23;35.47;;;22.45;;
39880;SDS011;25554;44.954;10.068;2023-05-28T04:20:50;28.02;;;22.65;;
39880;SDS011;25554;44.954;10.068;2023-05-28T04:25:42;30.90;;;21.08;;
39880;SDS011;25554;44.954;10.068;2023-05-28T04:28:09;32.85;;;21.92;;
39880;SDS011;25554;44.954;10.068;2023-05-28T04:30:37;28.63;;;20.75;;
39880;SDS011;25554;44.954;10.068;2023-05-28T04:33:03;37.53;;;24.67;;
39880;SDS011;25554;44.954;10.068;2023-05-28T04:35:32;32.60;;;22.95;;
39880;SDS011;25554;44.954;10.068;2023-05-28T04:37:58;32.60;;;23.95;;
39880;SDS011;25554;44.954;10.068;2023-05-28T04:40:25;30.10;;;22.08;;
39880;SDS011;25554;44.954;10.068;2023-05-28T04:42:52;38.97;;;23.55;;
39880;SDS011;25554;44.954;10.068;2023-05-28T04:45:20;32.92;;;23.15;;
39880;SDS011;25554;44.954;10.068;2023-05-28T04:47:48;31.02;;;22.95;;
39880;SDS011;25554;44.954;10.068;2023-05-28T04:50:18;33.50;;;23.00;;
39880;SDS011;25554;44.954;10.068;2023-05-28T04:52:45;32.20;;;22.35;;
39880;SDS011;25554;44.954;10.068;2023-05-28T04:55:12;34.83;;;24.95;;
39880;SDS011;25554;44.954;10.068;2023-05-28T04:57:39;34.90;;;25.73;;
39880;SDS011;25554;44.954;10.068;2023-05-28T05:00:07;41.33;;;27.45;;
39880;SDS011;25554;44.954;10.068;2023-05-28T05:02:38;42.63;;;27.02;;
39880;SDS011;25554;44.954;10.068;2023-05-28T05:05:07;35.28;;;25.58;;
39880;SDS011;25554;44.954;10.068;2023-05-28T05:07:36;37.25;;;26.20;;
39880;SDS011;25554;44.954;10.068;2023-05-28T05:10:07;38.97;;;27.05;;
39880;SDS011;25554;44.954;10.068;2023-05-28T05:12:35;33.92;;;25.85;;
39880;SDS011;25554;44.954;10.068;2023-05-28T05:15:02;34.33;;;26.10;;
39880;SDS011;25554;44.954;10.068;2023-05-28T05:17:30;35.17;;;25.00;;
39880;SDS011;25554;44.954;10.068;2023-05-28T05:19:57;35.15;;;25.75;;
39880;SDS011;25554;44.954;10.068;2023-05-28T05:22:24;33.97;;;24.67;;
39880;SDS011;25554;44.954;10.068;2023-05-28T05:24:50;31.20;;;23.95;;
39880;SDS011;25554;44.954;10.068;2023-05-28T05:27:17;34.00;;;24.45;;
39880;SDS011;25554;44.954;10.068;2023-05-28T05:29:43;36.25;;;25.13;;
39880;SDS011;25554;44.954;10.068;2023-05-28T05:32:10;37.90;;;26.98;;
39880;SDS011;25554;44.954;10.068;2023-05-28T05:37:25;32.75;;;21.80;;
39880;SDS011;25554;44.954;10.068;2023-05-28T05:40:08;27.58;;;20.02;;
39880;SDS011;25554;44.954;10.068;2023-05-28T05:42:50;35.97;;;24.80;;
39880;SDS011;25554;44.954;10.068;2023-05-28T05:45:18;41.03;;;26.38;;
39880;SDS011;25554;44.954;10.068;2023-05-28T05:47:45;32.47;;;24.55;;
39880;SDS011;25554;44.954;10.068;2023-05-28T05:50:11;37.17;;;26.90;;
39880;SDS011;25554;44.954;10.068;2023-05-28T05:52:39;33.28;;;25.17;;
39880;SDS011;25554;44.954;10.068;2023-05-28T05:55:07;29.73;;;23.92;;
39880;SDS011;25554;44.954;10.068;2023-05-28T05:57:34;34.35;;;25.98;;
39880;SDS011;25554;44.954;10.068;2023-05-28T06:00:05;34.15;;;24.10;;
39880;SDS011;25554;44.954;10.068;2023-05-28T06:02:39;32.72;;;22.15;;
39880;SDS011;25554;44.954;10.068;2023-05-28T06:05:26;33.80;;;22.35;;
39880;SDS011;25554;44.954;10.068;2023-05-28T06:08:09;25.20;;;20.15;;
39880;SDS011;25554;44.954;10.068;2023-05-28T06:10:58;27.85;;;21.35;;
39880;SDS011;25554;44.954;10.068;2023-05-28T06:13:24;26.77;;;19.90;;
39880;SDS011;25554;44.954;10.068;2023-05-28T06:15:51;30.27;;;19.67;;
39880;SDS011;25554;44.954;10.068;2023-05-28T06:20:44;25.73;;;19.20;;
39880;SDS011;25554;44.954;10.068;2023-05-28T06:23:11;27.95;;;20.05;;
39880;SDS011;25554;44.954;10.068;2023-05-28T06:25:39;30.23;;;18.85;;
39880;SDS011;25554;44.954;10.068;2023-05-28T06:28:06;25.48;;;17.35;;
39880;SDS011;25554;44.954;10.068;2023-05-28T06:32:59;21.23;;;15.85;;
39880;SDS011;25554;44.954;10.068;2023-05-28T06:35:26;26.10;;;17.98;;
39880;SDS011;25554;44.954;10.068;2023-05-28T06:40:18;20.55;;;14.95;;
39880;SDS011;25554;44.954;10.068;2023-05-28T06:42:45;18.27;;;14.73;;
39880;SDS011;25554;44.954;10.068;2023-05-28T06:45:18;19.70;;;15.85;;
39880;SDS011;25554;44.954;10.068;2023-05-28T06:47:45;18.13;;;15.02;;
39880;SDS011;25554;44.954;10.068;2023-05-28T06:50:12;22.85;;;15.68;;
39880;SDS011;25554;44.954;10.068;2023-05-28T06:52:39;18.50;;;14.80;;
39880;SDS011;25554;44.954;10.068;2023-05-28T06:55:06;21.55;;;15.57;;
39880;SDS011;25554;44.954;10.068;2023-05-28T06:57:35;20.27;;;14.05;;
39880;SDS011;25554;44.954;10.068;2023-05-28T07:00:28;21.27;;;13.88;;
39880;SDS011;25554;44.954;10.068;2023-05-28T07:03:15;17.45;;;14.43;;
39880;SDS011;25554;44.954;10.068;2023-05-28T07:05:50;24.42;;;15.27;;
39880;SDS011;25554;44.954;10.068;2023-05-28T07:08:17;20.05;;;14.90;;
39880;SDS011;25554;44.954;10.068;2023-05-28T07:10:44;20.65;;;14.60;;
39880;SDS011;25554;44.954;10.068;2023-05-28T07:13:11;19.55;;;13.20;;
39880;SDS011;25554;44.954;10.068;2023-05-28T07:15:38;16.75;;;14.35;;
39880;SDS011;25554;44.954;10.068;2023-05-28T07:18:06;17.65;;;13.65;;
39880;SDS011;25554;44.954;10.068;2023-05-28T07:20:32;23.42;;;13.23;;
39880;SDS011;25554;44.954;10.068;2023-05-28T07:23:21;18.38;;;13.23;;
39880;SDS011;25554;44.954;10.068;2023-05-28T07:25:49;18.60;;;14.38;;
39880;SDS011;25554;44.954;10.068;2023-05-28T07:28:15;16.27;;;13.25;;
39880;SDS011;25554;44.954;10.068;2023-05-28T07:30:42;15.48;;;12.27;;
39880;SDS011;25554;44.954;10.068;2023-05-28T07:33:10;15.32;;;12.50;;
39880;SDS011;25554;44.954;10.068;2023-05-28T07:35:37;15.48;;;13.50;;
39880;SDS011;25554;44.954;10.068;2023-05-28T07:38:04;16.05;;;13.25;;
39880;SDS011;25554;44.954;10.068;2023-05-28T07:40:30;16.63;;;13.73;;
39880;SDS011;25554;44.954;10.068;2023-05-28T07:43:09;22.50;;;15.65;;
39880;SDS011;25554;44.954;10.068;2023-05-28T07:45:39;23.05;;;14.95;;
39880;SDS011;25554;44.954;10.068;2023-05-28T07:48:11;16.08;;;14.18;;
39880;SDS011;25554;44.954;10.068;2023-05-28T07:50:58;17.67;;;14.30;;
39880;SDS011;25554;44.954;10.068;2023-05-28T07:53:40;15.70;;;14.02;;
39880;SDS011;25554;44.954;10.068;2023-05-28T07:56:11;15.43;;;13.20;;
39880;SDS011;25554;44.954;10.068;2023-05-28T07:58:43;22.65;;;14.57;;
39880;SDS011;25554;44.954;10.068;2023-05-28T08:01:10;17.17;;;15.00;;
39880;SDS011;25554;44.954;10.068;2023-05-28T08:03:38;19.67;;;14.70;;
39880;SDS011;25554;44.954;10.068;2023-05-28T08:06:06;20.70;;;15.95;;
39880;SDS011;25554;44.954;10.068;2023-05-28T08:08:35;18.13;;;14.55;;
39880;SDS011;25554;44.954;10.068;2023-05-28T08:11:02;18.27;;;16.27;;
39880;SDS011;25554;44.954;10.068;2023-05-28T08:13:29;19.58;;;15.27;;
39880;SDS011;25554;44.954;10.068;2023-05-28T08:15:58;18.20;;;15.10;;
39880;SDS011;25554;44.954;10.068;2023-05-28T08:18:28;18.98;;;15.00;;
39880;SDS011;25554;44.954;10.068;2023-05-28T08:20:56;15.80;;;13.02;;
39880;SDS011;25554;44.954;10.068;2023-05-28T08:23:23;20.98;;;14.32;;
39880;SDS011;25554;44.954;10.068;2023-05-28T08:25:51;17.30;;;14.40;;
39880;SDS011;25554;44.954;10.068;2023-05-28T08:28:23;20.25;;;14.38;;
39880;SDS011;25554;44.954;10.068;2023-05-28T08:30:50;22.05;;;15.18;;
39880;SDS011;25554;44.954;10.068;2023-05-28T08:33:25;21.20;;;17.63;;
39880;SDS011;25554;44.954;10.068;2023-05-28T08:35:52;20.55;;;14.85;;
39880;SDS011;25554;44.954;10.068;2023-05-28T08:38:20;21.42;;;14.93;;
39880;SDS011;25554;44.954;10.068;2023-05-28T08:40:49;18.38;;;14.77;;
39880;SDS011;25554;44.954;10.068;2023-05-28T08:43:19;23.20;;;16.35;;
39880;SDS011;25554;44.954;10.068;2023-05-28T08:45:47;18.58;;;14.35;;
39880;SDS011;25554;44.954;10.068;2023-05-28T08:48:20;18.13;;;14.05;;
39880;SDS011;25554;44.954;10.068;2023-05-28T08:50:49;19.80;;;14.05;;
39880;SDS011;25554;44.954;10.068;2023-05-28T08:53:39;17.63;;;13.75;;
39880;SDS011;25554;44.954;10.068;2023-05-28T08:56:10;18.50;;;14.02;;
39880;SDS011;25554;44.954;10.068;2023-05-28T08:58:37;23.55;;;15.27;;
39880;SDS011;25554;44.954;10.068;2023-05-28T09:01:05;19.30;;;15.50;;
39880;SDS011;25554;44.954;10.068;2023-05-28T09:03:37;21.42;;;14.77;;
39880;SDS011;25554;44.954;10.068;2023-05-28T09:08:38;19.42;;;14.75;;
39880;SDS011;25554;44.954;10.068;2023-05-28T09:11:14;20.20;;;13.68;;
39880;SDS011;25554;44.954;10.068;2023-05-28T09:13:43;17.83;;;13.65;;
39880;SDS011;25554;44.954;10.068;2023-05-28T09:16:13;24.45;;;16.08;;
39880;SDS011;25554;44.954;10.068;2023-05-28T09:18:52;58.10;;;42.10;;
39880;SDS011;25554;44.954;10.068;2023-05-28T09:21:28;20.45;;;15.38;;
39880;SDS011;25554;44.954;10.068;2023-05-28T09:23:59;16.83;;;13.63;;
39880;SDS011;25554;44.954;10.068;2023-05-28T09:26:45;20.65;;;13.98;;
39880;SDS011;25554;44.954;10.068;2023-05-28T09:29:25;20.13;;;14.98;;
39880;SDS011;25554;44.954;10.068;2023-05-28T09:32:01;19.90;;;15.63;;
39880;SDS011;25554;44.954;10.068;2023-05-28T09:34:28;18.88;;;14.13;;
39880;SDS011;25554;44.954;10.068;2023-05-28T09:39:27;29.02;;;17.45;;
39880;SDS011;25554;44.954;10.068;2023-05-28T09:42:00;18.98;;;14.40;;
39880;SDS011;25554;44.954;10.068;2023-05-28T09:44:38;23.60;;;16.88;;
39880;SDS011;25554;44.954;10.068;2023-05-28T09:47:15;17.50;;;13.57;;
39880;SDS011;25554;44.954;10.068;2023-05-28T09:49:43;20.58;;;15.05;;
39880;SDS011;25554;44.954;10.068;2023-05-28T09:52:17;21.95;;;15.30;;
39880;SDS011;25554;44.954;10.068;2023-05-28T09:54:50;18.55;;;13.88;;
39880;SDS011;25554;44.954;10.068;2023-05-28T09:57:29;22.10;;;14.93;;
39880;SDS011;25554;44.954;10.068;2023-05-28T09:59:56;19.13;;;14.00;;
39880;SDS011;25554;44.954;10.068;2023-05-28T10:02:35;18.67;;;15.75;;
39880;SDS011;25554;44.954;10.068;2023-05-28T10:05:09;22.50;;;16.80;;
39880;SDS011;25554;44.954;10.068;2023-05-28T10:07:37;16.90;;;14.27;;
39880;SDS011;25554;44.954;10.068;2023-05-28T10:10:11;19.92;;;15.25;;
39880;SDS011;25554;44.954;10.068;2023-05-28T10:12:39;23.02;;;15.30;;
39880;SDS011;25554;44.954;10.068;2023-05-28T10:15:06;17.75;;;13.90;;
39880;SDS011;25554;44.954;10.068;2023-05-28T10:17:33;17.90;;;11.82;;
39880;SDS011;25554;44.954;10.068;2023-05-28T10:20:01;20.20;;;15.10;;
39880;SDS011;25554;44.954;10.068;2023-05-28T10:22:30;22.52;;;15.40;;
39880;SDS011;25554;44.954;10.068;2023-05-28T10:24:58;22.60;;;16.15;;
39880;SDS011;25554;44.954;10.068;2023-05-28T10:27:29;21.20;;;14.38;;
39880;SDS011;25554;44.954;10.068;2023-05-28T10:29:56;20.70;;;15.15;;
39880;SDS011;25554;44.954;10.068;2023-05-28T10:32:23;21.33;;;14.88;;
39880;SDS011;25554;44.954;10.068;2023-05-28T10:34:50;21.65;;;16.05;;
39880;SDS011;25554;44.954;10.068;2023-05-28T10:37:22;18.83;;;12.25;;
39880;SDS011;25554;44.954;10.068;2023-05-28T10:39:48;17.85;;;13.95;;
39880;SDS011;25554;44.954;10.068;2023-05-28T10:42:15;16.30;;;12.38;;
39880;SDS011;25554;44.954;10.068;2023-05-28T10:47:33;16.00;;;13.80;;
39880;SDS011;25554;44.954;10.068;2023-05-28T10:50:14;21.35;;;15.88;;
39880;SDS011;25554;44.954;10.068;2023-05-28T10:52:41;19.45;;;12.85;;
39880;SDS011;25554;44.954;10.068;2023-05-28T10:55:08;17.20;;;12.88;;
39880;SDS011;25554;44.954;10.068;2023-05-28T10:57:40;19.45;;;15.05;;
39880;SDS011;25554;44.954;10.068;2023-05-28T11:00:23;20.65;;;14.82;;
39880;SDS011;25554;44.954;10.068;2023-05-28T11:02:51;22.33;;;16.63;;
39880;SDS011;25554;44.954;10.068;2023-05-28T11:05:22;20.85;;;15.65;;
39880;SDS011;25554;44.954;10.068;2023-05-28T11:07:53;19.48;;;16.42;;
39880;SDS011;25554;44.954;10.068;2023-05-28T11:10:21;17.35;;;14.18;;
39880;SDS011;25554;44.954;10.068;2023-05-28T11:12:48;17.17;;;14.50;;
39880;SDS011;25554;44.954;10.068;2023-05-28T11:15:16;18.02;;;13.60;;
39880;SDS011;25554;44.954;10.068;2023-05-28T11:17:43;18.33;;;14.45;;
39880;SDS011;25554;44.954;10.068;2023-05-28T11:20:17;17.60;;;13.15;;
39880;SDS011;25554;44.954;10.068;2023-05-28T11:22:50;25.23;;;16.75;;
39880;SDS011;25554;44.954;10.068;2023-05-28T11:25:17;18.60;;;12.82;;
39880;SDS011;25554;44.954;10.068;2023-05-28T11:27:43;19.00;;;14.30;;
39880;SDS011;25554;44.954;10.068;2023-05-28T11:30:14;20.25;;;14.32;;
39880;SDS011;25554;44.954;10.068;2023-05-28T11:32:43;16.63;;;12.20;;
39880;SDS011;25554;44.954;10.068;2023-05-28T11:35:11;18.25;;;14.32;;
39880;SDS011;25554;44.954;10.068;2023-05-28T11:37:39;16.33;;;13.45;;
39880;SDS011;25554;44.954;10.068;2023-05-28T11:40:07;19.05;;;13.40;;
39880;SDS011;25554;44.954;10.068;2023-05-28T11:49:36;18.63;;;11.85;;
39880;SDS011;25554;44.954;10.068;2023-05-28T11:53:18;24.25;;;13.00;;
39880;SDS011;25554;44.954;10.068;2023-05-28T11:55:45;15.13;;;12.85;;
39880;SDS011;25554;44.954;10.068;2023-05-28T11:58:11;16.20;;;12.02;;
39880;SDS011;25554;44.954;10.068;2023-05-28T12:00:38;15.93;;;12.98;;
39880;SDS011;25554;44.954;10.068;2023-05-28T12:03:05;14.75;;;10.75;;
39880;SDS011;25554;44.954;10.068;2023-05-28T12:05:38;14.27;;;11.02;;
39880;SDS011;25554;44.954;10.068;2023-05-28T12:08:04;13.38;;;10.40;;
39880;SDS011;25554;44.954;10.068;2023-05-28T12:10:31;15.88;;;10.57;;
39880;SDS011;25554;44.954;10.068;2023-05-28T12:12:57;16.80;;;12.48;;
39880;SDS011;25554;44.954;10.068;2023-05-28T12:15:29;15.23;;;13.38;;
39880;SDS011;25554;44.954;10.068;2023-05-28T12:17:56;13.38;;;10.45;;
39880;SDS011;25554;44.954;10.068;2023-05-28T12:23:02;13.50;;;11.65;;
39880;SDS011;25554;44.954;10.068;2023-05-28T12:28:08;17.25;;;13.07;;
39880;SDS011;25554;44.954;10.068;2023-05-28T12:30:37;14.80;;;11.50;;
39880;SDS011;25554;44.954;10.068;2023-05-28T12:33:04;14.05;;;10.98;;
39880;SDS011;25554;44.954;10.068;2023-05-28T12:35:31;15.85;;;12.57;;
39880;SDS011;25554;44.954;10.068;2023-05-28T12:37:57;13.50;;;10.30;;
39880;SDS011;25554;44.954;10.068;2023-05-28T12:40:24;18.40;;;10.77;;
39880;SDS011;25554;44.954;10.068;2023-05-28T12:42:50;12.40;;;9.07;;
39880;SDS011;25554;44.954;10.068;2023-05-28T12:45:17;13.13;;;10.00;;
39880;SDS011;25554;44.954;10.068;2023-05-28T12:47:44;14.38;;;10.20;;
39880;SDS011;25554;44.954;10.068;2023-05-28T12:50:10;12.95;;;7.63;;
39880;SDS011;25554;44.954;10.068;2023-05-28T12:52:37;12.50;;;8.88;;
39880;SDS011;25554;44.954;10.068;2023-05-28T12:55:03;11.50;;;8.85;;
39880;SDS011;25554;44.954;10.068;2023-05-28T12:57:30;15.38;;;9.43;;
39880;SDS011;25554;44.954;10.068;2023-05-28T12:59:56;14.90;;;9.13;;
39880;SDS011;25554;44.954;10.068;2023-05-28T13:02:23;16.73;;;9.05;;
39880;SDS011;25554;44.954;10.068;2023-05-28T13:04:50;14.30;;;11.32;;
39880;SDS011;25554;44.954;10.068;2023-05-28T13:07:16;16.13;;;10.43;;
39880;SDS011;25554;44.954;10.068;2023-05-28T13:09:43;16.73;;;12.43;;
39880;SDS011;25554;44.954;10.068;2023-05-28T13:12:10;20.23;;;11.98;;
39880;SDS011;25554;44.954;10.068;2023-05-28T13:14:37;13.13;;;10.35;;
39880;SDS011;25554;44.954;10.068;2023-05-28T13:17:03;9.65;;;7.43;;
39880;SDS011;25554;44.954;10.068;2023-05-28T13:19:30;11.50;;;7.40;;
39880;SDS011;25554;44.954;10.068;2023-05-28T13:21:57;11.38;;;7.32;;
39880;SDS011;25554;44.954;10.068;2023-05-28T13:24:25;9.13;;;7.45;;
39880;SDS011;25554;44.954;10.068;2023-05-28T13:26:52;8.77;;;6.95;;
39880;SDS011;25554;44.954;10.068;2023-05-28T13:29:18;7.78;;;6.72;;
39880;SDS011;25554;44.954;10.068;2023-05-28T13:31:45;10.05;;;7.15;;
39880;SDS011;25554;44.954;10.068;2023-05-28T13:34:11;9.57;;;7.05;;
39880;SDS011;25554;44.954;10.068;2023-05-28T13:36:38;9.10;;;6.40;;
39880;SDS011;25554;44.954;10.068;2023-05-28T13:39:05;9.77;;;6.90;;
39880;SDS011;25554;44.954;10.068;2023-05-28T13:41:31;7.28;;;6.25;;
39880;SDS011;25554;44.954;10.068;2023-05-28T13:43:58;9.32;;;7.35;;
39880;SDS011;25554;44.954;10.068;2023-05-28T13:46:26;14.73;;;9.05;;
39880;SDS011;25554;44.954;10.068;2023-05-28T13:48:53;12.40;;;9.02;;
39880;SDS011;25554;44.954;10.068;2023-05-28T13:51:20;12.55;;;7.35;;
39880;SDS011;25554;44.954;10.068;2023-05-28T13:53:46;10.35;;;6.60;;
39880;SDS011;25554;44.954;10.068;2023-05-28T13:56:13;8.50;;;7.45;;
39880;SDS011;25554;44.954;10.068;2023-05-28T13:58:40;8.95;;;6.90;;
39880;SDS011;25554;44.954;10.068;2023-05-28T14:01:07;8.45;;;7.63;;
39880;SDS011;25554;44.954;10.068;2023-05-28T14:03:33;9.57;;;7.13;;
39880;SDS011;25554;44.954;10.068;2023-05-28T14:06:00;11.20;;;8.15;;
39880;SDS011;25554;44.954;10.068;2023-05-28T14:08:26;9.10;;;7.35;;
39880;SDS011;25554;44.954;10.068;2023-05-28T14:10:53;9.82;;;7.25;;
39880;SDS011;25554;44.954;10.068;2023-05-28T14:13:19;7.57;;;6.80;;
39880;SDS011;25554;44.954;10.068;2023-05-28T14:15:46;12.57;;;8.20;;
39880;SDS011;25554;44.954;10.068;2023-05-28T14:18:13;11.07;;;8.32;;
39880;SDS011;25554;44.954;10.068;2023-05-28T14:20:40;12.27;;;8.30;;
39880;SDS011;25554;44.954;10.068;2023-05-28T14:23:06;11.82;;;7.90;;
39880;SDS011;25554;44.954;10.068;2023-05-28T14:25:33;9.98;;;8.60;;
39880;SDS011;25554;44.954;10.068;2023-05-28T14:27:59;8.45;;;6.93;;
39880;SDS011;25554;44.954;10.068;2023-05-28T14:30:26;9.20;;;6.55;;
39880;SDS011;25554;44.954;10.068;2023-05-28T14:32:52;8.77;;;6.43;;
39880;SDS011;25554;44.954;10.068;2023-05-28T14:35:19;11.18;;;6.75;;
39880;SDS011;25554;44.954;10.068;2023-05-28T14:37:46;13.02;;;6.97;;
39880;SDS011;25554;44.954;10.068;2023-05-28T14:40:16;6.80;;;6.10;;
39880;SDS011;25554;44.954;10.068;2023-05-28T14:42:43;9.90;;;6.40;;
39880;SDS011;25554;44.954;10.068;2023-05-28T14:45:11;8.18;;;5.80;;
39880;SDS011;25554;44.954;10.068;2023-05-28T14:47:37;7.00;;;5.70;;
39880;SDS011;25554;44.954;10.068;2023-05-28T14:50:05;7.30;;;6.10;;
39880;SDS011;25554;44.954;10.068;2023-05-28T14:52:32;9.80;;;6.43;;
39880;SDS011;25554;44.954;10.068;2023-05-28T14:54:59;6.95;;;5.85;;
39880;SDS011;25554;44.954;10.068;2023-05-28T14:57:26;7.88;;;5.78;;
39880;SDS011;25554;44.954;10.068;2023-05-28T14:59:58;7.78;;;6.40;;
39880;SDS011;25554;44.954;10.068;2023-05-28T15:02:35;8.52;;;6.70;;
39880;SDS011;25554;44.954;10.068;2023-05-28T15:05:02;7.88;;;6.32;;
39880;SDS011;25554;44.954;10.068;2023-05-28T15:07:30;9.05;;;7.40;;
39880;SDS011;25554;44.954;10.068;2023-05-28T15:09:57;8.45;;;6.88;;
39880;SDS011;25554;44.954;10.068;2023-05-28T15:12:24;10.85;;;6.80;;
39880;SDS011;25554;44.954;10.068;2023-05-28T15:14:50;9.38;;;7.05;;
39880;SDS011;25554;44.954;10.068;2023-05-28T15:17:17;8.02;;;6.70;;